Time;durP1;ratioP1;P1;durP2;ratioP2;P2;SDS_P1;SDS_P2;PMS_P1;PMS_P2;Temp;Humidity;BMP_temperature;BMP_pressure;BME280_temperature;BME280_humidity;BME280_pressure;Samples;Min_cycle;Max_cycle;Signal;HPM_P1;HPM_P2
2023/11/08 00:01:17;;;;;;;13.50;6.40;;;;;;;;;;5115639;28;20432;-71
2023/11/08 00:04:02;;;;;;;20.25;6.63;;;;;;;;;;5101819;28;20028;-72
2023/11/08 00:06:48;;;;;;;18.90;6.35;;;;;;;;;;5101775;28;20026;-72
2023/11/08 00:09:34;;;;;;;9.70;5.00;;;;;;;;;;5115570;28;20440;-72
2023/11/08 00:12:20;;;;;;;9.30;5.20;;;;;;;;;;5115980;28;20387;-72
2023/11/08 00:15:08;;;;;;;10.95;5.18;;;;;;;;;;5116330;28;20054;-72
2023/11/08 00:17:54;;;;;;;11.60;5.30;;;;;;;;;;5116211;28;20111;-73
2023/11/08 00:20:39;;;;;;;9.88;5.18;;;;;;;;;;5100697;28;20102;-73
2023/11/08 00:23:25;;;;;;;14.35;5.30;;;;;;;;;;5115188;28;20020;-72
2023/11/08 00:26:11;;;;;;;12.88;4.47;;;;;;;;;;5101872;28;20051;-72
2023/11/08 00:28:57;;;;;;;9.70;4.38;;;;;;;;;;5118270;28;20027;-74
2023/11/08 00:31:43;;;;;;;12.52;4.93;;;;;;;;;;5101291;28;20084;-74
2023/11/08 00:34:29;;;;;;;10.82;4.72;;;;;;;;;;5099815;28;20026;-74
2023/11/08 00:37:14;;;;;;;10.07;5.00;;;;;;;;;;5100765;28;20031;-75
2023/11/08 00:40:00;;;;;;;9.20;5.18;;;;;;;;;;5115858;28;20028;-74
2023/11/08 00:42:46;;;;;;;9.15;5.15;;;;;;;;;;5115777;28;20071;-74
2023/11/08 00:45:33;;;;;;;10.65;5.55;;;;;;;;;;5115727;28;20112;-73
2023/11/08 00:48:23;;;;;;;12.45;5.75;;;;;;;;;;5115750;28;20088;-72
2023/11/08 00:51:09;;;;;;;10.13;5.13;;;;;;;;;;5115725;28;20355;-73
2023/11/08 00:53:54;;;;;;;11.88;5.03;;;;;;;;;;5102085;28;20051;-72
2023/11/08 00:56:40;;;;;;;10.35;4.90;;;;;;;;;;5120201;28;20023;-74
2023/11/08 00:59:25;;;;;;;10.13;4.80;;;;;;;;;;5116818;28;20016;-74
2023/11/08 01:02:11;;;;;;;10.63;5.00;;;;;;;;;;5120810;28;20160;-74
2023/11/08 01:04:57;;;;;;;11.55;5.18;;;;;;;;;;5123564;28;20352;-74
2023/11/08 01:07:43;;;;;;;10.02;5.30;;;;;;;;;;5126263;28;20046;-75
2023/11/08 01:10:28;;;;;;;12.73;5.10;;;;;;;;;;5121097;28;20028;-73
2023/11/08 01:13:14;;;;;;;8.40;4.47;;;;;;;;;;5122407;28;20087;-74
2023/11/08 01:15:59;;;;;;;9.13;4.80;;;;;;;;;;5110350;28;20011;-73
2023/11/08 01:18:45;;;;;;;11.00;5.07;;;;;;;;;;5128466;28;20026;-72
2023/11/08 01:21:31;;;;;;;10.90;5.38;;;;;;;;;;5128732;28;20031;-73
2023/11/08 01:24:17;;;;;;;10.77;5.10;;;;;;;;;;5130283;28;20031;-73
2023/11/08 01:27:03;;;;;;;12.07;5.45;;;;;;;;;;5116553;28;20020;-74
2023/11/08 01:29:49;;;;;;;11.77;4.95;;;;;;;;;;5129785;28;20130;-71
2023/11/08 01:32:35;;;;;;;11.80;5.07;;;;;;;;;;5111242;28;20022;-75
2023/11/08 01:35:20;;;;;;;7.07;4.55;;;;;;;;;;5116275;28;20015;-74
2023/11/08 01:38:06;;;;;;;10.70;5.03;;;;;;;;;;5102720;28;20402;-74
2023/11/08 01:40:52;;;;;;;12.32;5.00;;;;;;;;;;5113362;28;20026;-74
2023/11/08 01:43:38;;;;;;;10.18;5.30;;;;;;;;;;5116006;28;20443;-74
2023/11/08 01:46:25;;;;;;;12.38;5.18;;;;;;;;;;5116103;28;20019;-75
2023/11/08 01:49:12;;;;;;;21.50;6.32;;;;;;;;;;5104389;28;20023;-75
2023/11/08 01:52:00;;;;;;;12.50;5.10;;;;;;;;;;5116830;28;20448;-74
2023/11/08 01:54:49;;;;;;;8.95;5.00;;;;;;;;;;5118114;28;20055;-73
2023/11/08 01:57:35;;;;;;;9.30;4.93;;;;;;;;;;5123325;28;20019;-74
2023/11/08 02:00:23;;;;;;;14.80;5.53;;;;;;;;;;5128247;28;20015;-72
2023/11/08 02:03:09;;;;;;;9.68;5.18;;;;;;;;;;5111331;28;20020;-74
2023/11/08 02:05:55;;;;;;;9.63;4.22;;;;;;;;;;5125712;28;20019;-72
2023/11/08 02:08:40;;;;;;;6.75;4.25;;;;;;;;;;5129287;28;20024;-72
2023/11/08 02:11:29;;;;;;;12.55;4.15;;;;;;;;;;5116302;28;20028;-73
2023/11/08 02:14:14;;;;;;;9.10;4.10;;;;;;;;;;5113319;28;20049;-74
2023/11/08 02:17:01;;;;;;;10.35;4.35;;;;;;;;;;5125081;28;20036;-73
2023/11/08 02:19:46;;;;;;;8.43;4.07;;;;;;;;;;5106956;28;20026;-72
2023/11/08 02:22:32;;;;;;;8.18;3.85;;;;;;;;;;5114793;28;20075;-75
2023/11/08 02:25:17;;;;;;;8.95;4.38;;;;;;;;;;5110128;28;20027;-76
2023/11/08 02:28:03;;;;;;;9.23;4.40;;;;;;;;;;5129166;28;20028;-73
2023/11/08 02:30:53;;;;;;;10.55;4.38;;;;;;;;;;5126607;28;20138;-72
2023/11/08 02:33:40;;;;;;;10.90;4.82;;;;;;;;;;5124985;28;20012;-74
2023/11/08 02:36:26;;;;;;;9.00;4.35;;;;;;;;;;5115944;28;20022;-74
2023/11/08 02:39:12;;;;;;;7.80;4.13;;;;;;;;;;5116525;28;20419;-74
2023/11/08 02:41:57;;;;;;;12.23;4.82;;;;;;;;;;5114878;28;20032;-74
2023/11/08 02:44:43;;;;;;;13.75;5.30;;;;;;;;;;5115992;28;20081;-73
2023/11/08 02:47:29;;;;;;;10.77;4.63;;;;;;;;;;5117832;28;20016;-73
2023/11/08 02:50:14;;;;;;;8.65;4.70;;;;;;;;;;5120553;28;20435;-74
2023/11/08 02:53:00;;;;;;;9.77;4.68;;;;;;;;;;5104554;28;20034;-74
2023/11/08 02:55:45;;;;;;;12.13;4.68;;;;;;;;;;5105481;28;20436;-74
2023/11/08 02:58:31;;;;;;;9.57;5.05;;;;;;;;;;5123283;28;20029;-75
2023/11/08 03:01:17;;;;;;;8.50;4.95;;;;;;;;;;5107345;28;20012;-76
2023/11/08 03:04:02;;;;;;;11.32;5.22;;;;;;;;;;5105044;28;20024;-74
2023/11/08 03:06:48;;;;;;;9.95;5.28;;;;;;;;;;5106018;28;20023;-74
2023/11/08 03:09:34;;;;;;;8.35;5.03;;;;;;;;;;5103413;28;20023;-74
2023/11/08 03:12:19;;;;;;;10.40;6.00;;;;;;;;;;5102760;28;20393;-74
2023/11/08 03:15:05;;;;;;;11.80;6.20;;;;;;;;;;5103862;28;20038;-74
2023/11/08 03:17:51;;;;;;;13.00;6.00;;;;;;;;;;5106726;28;20087;-76
2023/11/08 03:20:38;;;;;;;11.68;6.32;;;;;;;;;;5119207;28;20030;-74
2023/11/08 03:23:26;;;;;;;13.60;6.22;;;;;;;;;;5104133;28;20034;-75
2023/11/08 03:26:12;;;;;;;10.82;5.90;;;;;;;;;;5121201;28;20027;-74
2023/11/08 03:28:57;;;;;;;12.18;6.65;;;;;;;;;;5119116;28;20505;-74
2023/11/08 03:31:43;;;;;;;15.20;7.10;;;;;;;;;;5117827;28;20042;-75
2023/11/08 03:34:28;;;;;;;14.43;7.18;;;;;;;;;;5117915;28;20103;-75
2023/11/08 03:37:14;;;;;;;17.20;8.52;;;;;;;;;;5118405;28;20019;-74
2023/11/08 03:40:02;;;;;;;13.00;7.75;;;;;;;;;;5102125;28;20077;-73
2023/11/08 03:42:47;;;;;;;15.52;7.97;;;;;;;;;;5102050;28;20031;-74
2023/11/08 03:45:33;;;;;;;15.70;7.65;;;;;;;;;;5117320;28;20551;-74
2023/11/08 03:48:18;;;;;;;16.48;7.18;;;;;;;;;;5102619;28;20027;-74
2023/11/08 03:51:04;;;;;;;14.43;7.00;;;;;;;;;;5101982;28;20047;-74
2023/11/08 03:53:51;;;;;;;12.05;7.03;;;;;;;;;;5117221;28;20077;-74
2023/11/08 03:56:36;;;;;;;11.95;6.63;;;;;;;;;;5103194;28;20026;-75
2023/11/08 03:59:22;;;;;;;14.25;6.70;;;;;;;;;;5116486;28;20027;-75
2023/11/08 04:02:09;;;;;;;11.25;6.05;;;;;;;;;;5117366;28;20030;-73
2023/11/08 04:04:55;;;;;;;13.75;6.90;;;;;;;;;;5102765;28;20020;-75
2023/11/08 04:07:41;;;;;;;12.98;6.65;;;;;;;;;;5101927;28;20015;-73
2023/11/08 04:10:26;;;;;;;14.20;7.25;;;;;;;;;;5102844;28;20114;-73
2023/11/08 04:13:12;;;;;;;18.17;7.88;;;;;;;;;;5119281;28;20448;-73
2023/11/08 04:15:57;;;;;;;16.02;8.88;;;;;;;;;;5120067;28;20016;-73
2023/11/08 04:18:43;;;;;;;18.05;9.50;;;;;;;;;;5105300;28;20015;-74
2023/11/08 04:21:29;;;;;;;19.60;9.82;;;;;;;;;;5115730;28;20106;-75
2023/11/08 04:24:14;;;;;;;19.75;11.02;;;;;;;;;;5115922;28;20031;-75
2023/11/08 04:27:02;;;;;;;20.10;11.10;;;;;;;;;;5115313;28;20027;-74
2023/11/08 04:29:49;;;;;;;20.25;10.10;;;;;;;;;;5116691;28;20023;-74
2023/11/08 04:32:35;;;;;;;18.30;10.45;;;;;;;;;;5114811;28;20035;-76
2023/11/08 04:35:21;;;;;;;20.10;9.75;;;;;;;;;;5117234;28;20324;-73
2023/11/08 04:38:07;;;;;;;23.25;9.85;;;;;;;;;;5115393;28;20440;-73
2023/11/08 04:40:53;;;;;;;19.02;10.82;;;;;;;;;;5115618;28;20058;-74
2023/11/08 04:43:39;;;;;;;22.33;11.15;;;;;;;;;;5115722;28;20019;-74
2023/11/08 04:46:25;;;;;;;23.05;11.40;;;;;;;;;;5101111;28;20019;-74
2023/11/08 04:49:12;;;;;;;23.60;13.15;;;;;;;;;;5115265;28;20444;-74
2023/11/08 04:51:57;;;;;;;23.80;13.43;;;;;;;;;;5115492;28;20024;-74
2023/11/08 04:54:44;;;;;;;25.55;14.95;;;;;;;;;;5116366;28;20040;-74
2023/11/08 04:57:30;;;;;;;25.05;15.65;;;;;;;;;;5102640;27;20084;-73
2023/11/08 05:00:16;;;;;;;30.70;13.07;;;;;;;;;;5115639;28;20016;-73
2023/11/08 05:03:01;;;;;;;22.60;11.15;;;;;;;;;;5100195;28;20448;-73
2023/11/08 05:05:47;;;;;;;25.15;11.43;;;;;;;;;;5115009;28;20400;-75
2023/11/08 05:08:32;;;;;;;26.63;11.65;;;;;;;;;;5100317;28;20028;-73
2023/11/08 05:11:18;;;;;;;18.48;11.05;;;;;;;;;;5114964;28;20036;-73
2023/11/08 05:14:04;;;;;;;23.17;10.73;;;;;;;;;;5115764;28;20023;-74
2023/11/08 05:16:49;;;;;;;23.23;12.48;;;;;;;;;;5115050;28;20015;-73
2023/11/08 05:19:35;;;;;;;27.00;13.20;;;;;;;;;;5115129;28;20027;-78
2023/11/08 05:22:21;;;;;;;30.88;13.00;;;;;;;;;;5116961;28;20422;-80
2023/11/08 05:25:08;;;;;;;22.35;11.40;;;;;;;;;;5119016;28;20023;-80
2023/11/08 05:27:53;;;;;;;19.67;10.60;;;;;;;;;;5116104;28;20028;-80
2023/11/08 05:30:40;;;;;;;26.38;11.80;;;;;;;;;;5114927;28;20055;-80
2023/11/08 05:33:26;;;;;;;21.38;10.13;;;;;;;;;;5101382;28;20023;-80
2023/11/08 05:36:11;;;;;;;25.20;10.40;;;;;;;;;;5100632;28;20012;-80
2023/11/08 05:38:57;;;;;;;21.77;11.23;;;;;;;;;;5100713;28;20011;-80
2023/11/08 05:41:44;;;;;;;19.45;10.95;;;;;;;;;;5115702;28;20027;-80
2023/11/08 05:44:29;;;;;;;22.63;11.00;;;;;;;;;;5102069;28;20122;-80
2023/11/08 05:47:15;;;;;;;28.88;11.20;;;;;;;;;;5100776;28;20012;-80
2023/11/08 05:50:01;;;;;;;19.02;10.27;;;;;;;;;;5102845;28;20503;-80
2023/11/08 05:52:47;;;;;;;25.05;10.77;;;;;;;;;;5102559;28;20027;-80
2023/11/08 05:55:32;;;;;;;20.52;11.57;;;;;;;;;;5100576;28;20036;-81
2023/11/08 05:58:18;;;;;;;20.17;11.52;;;;;;;;;;5100908;28;20058;-80
2023/11/08 06:01:04;;;;;;;20.42;10.40;;;;;;;;;;5117507;28;20100;-81
2023/11/08 06:03:53;;;;;;;18.45;10.55;;;;;;;;;;5117949;28;20085;-81
2023/11/08 06:06:39;;;;;;;24.48;10.88;;;;;;;;;;5116381;28;20020;-81
2023/11/08 06:09:24;;;;;;;21.63;10.95;;;;;;;;;;5117891;28;20103;-81
2023/11/08 06:12:10;;;;;;;19.65;11.00;;;;;;;;;;5102137;28;20016;-81
2023/11/08 06:14:55;;;;;;;25.85;11.43;;;;;;;;;;5121389;28;20084;-81
2023/11/08 06:17:41;;;;;;;22.95;12.20;;;;;;;;;;5122165;28;20409;-81
2023/11/08 06:20:27;;;;;;;23.42;13.00;;;;;;;;;;5123195;28;20019;-81
2023/11/08 06:23:12;;;;;;;24.55;13.88;;;;;;;;;;5122263;28;20094;-81
2023/11/08 06:25:58;;;;;;;25.05;13.43;;;;;;;;;;5104617;28;20027;-81
2023/11/08 06:28:44;;;;;;;41.08;12.63;;;;;;;;;;5120688;28;20028;-83
2023/11/08 06:31:36;;;;;;;20.60;10.80;;;;;;;;;;5121090;28;20046;-81
2023/11/08 06:34:24;;;;;;;22.15;10.65;;;;;;;;;;5123329;28;20015;-81
2023/11/08 06:37:10;;;;;;;20.13;10.40;;;;;;;;;;5111915;28;20011;-81
2023/11/08 06:39:55;;;;;;;24.33;10.40;;;;;;;;;;5125064;28;20031;-80
2023/11/08 06:42:41;;;;;;;16.98;10.32;;;;;;;;;;5123849;28;20114;-82
2023/11/08 06:45:27;;;;;;;19.35;10.20;;;;;;;;;;5121624;28;20024;-81
2023/11/08 06:48:12;;;;;;;21.77;9.98;;;;;;;;;;5120263;28;20106;-75
2023/11/08 06:50:58;;;;;;;21.17;10.80;;;;;;;;;;5118105;28;20103;-76
2023/11/08 06:53:44;;;;;;;28.42;11.70;;;;;;;;;;5116861;28;20039;-75
2023/11/08 06:56:32;;;;;;;31.65;12.20;;;;;;;;;;5104487;28;20321;-77
2023/11/08 06:59:17;;;;;;;27.52;11.93;;;;;;;;;;5103898;28;20047;-76
2023/11/08 07:02:03;;;;;;;21.45;11.85;;;;;;;;;;5119486;28;20034;-76
2023/11/08 07:04:49;;;;;;;21.17;11.77;;;;;;;;;;5122754;28;20032;-78
2023/11/08 07:07:36;;;;;;;24.10;12.68;;;;;;;;;;5124291;28;20407;-76
2023/11/08 07:10:21;;;;;;;26.90;12.45;;;;;;;;;;5124863;28;20024;-78
2023/11/08 07:13:07;;;;;;;29.75;12.77;;;;;;;;;;5106900;28;20403;-75
2023/11/08 07:15:53;;;;;;;28.35;11.73;;;;;;;;;;5117104;28;20281;-75
2023/11/08 07:18:41;;;;;;;24.35;12.13;;;;;;;;;;5117701;28;20079;-75
2023/11/08 07:21:27;;;;;;;26.55;13.82;;;;;;;;;;5102997;28;20384;-75
2023/11/08 07:24:12;;;;;;;26.63;13.13;;;;;;;;;;5117201;28;20110;-75
2023/11/08 07:26:58;;;;;;;25.00;13.02;;;;;;;;;;5117863;28;20030;-74
2023/11/08 07:29:44;;;;;;;24.63;12.90;;;;;;;;;;5115696;28;20026;-75
2023/11/08 07:32:29;;;;;;;30.27;12.50;;;;;;;;;;5117583;28;20015;-75
2023/11/08 07:35:15;;;;;;;25.33;12.05;;;;;;;;;;5117585;28;20019;-75
2023/11/08 07:38:01;;;;;;;22.75;12.20;;;;;;;;;;5101507;28;20024;-75
2023/11/08 07:40:46;;;;;;;23.30;12.35;;;;;;;;;;5103387;28;20019;-75
2023/11/08 07:43:32;;;;;;;30.40;12.55;;;;;;;;;;5117249;28;20467;-75
2023/11/08 07:46:18;;;;;;;23.48;12.93;;;;;;;;;;5115230;28;20047;-76
2023/11/08 07:49:03;;;;;;;25.30;11.85;;;;;;;;;;5116399;28;20031;-76
2023/11/08 07:51:51;;;;;;;21.95;12.23;;;;;;;;;;5116033;28;20024;-75
2023/11/08 07:54:38;;;;;;;24.75;11.90;;;;;;;;;;5116369;28;20059;-76
2023/11/08 07:57:24;;;;;;;21.17;12.30;;;;;;;;;;5115354;28;20042;-75
2023/11/08 08:00:22;;;;;;;23.58;12.57;;;;;;;;;;5116808;28;20035;-74
2023/11/08 08:03:14;;;;;;;30.58;13.07;;;;;;;;;;5115465;28;20102;-76
2023/11/08 08:05:59;;;;;;;30.27;14.43;;;;;;;;;;5116790;28;20024;-75
2023/11/08 08:08:45;;;;;;;33.38;14.85;;;;;;;;;;5115838;28;20516;-75
2023/11/08 08:11:32;;;;;;;32.00;14.82;;;;;;;;;;5102572;28;20029;-75
2023/11/08 08:14:17;;;;;;;26.10;13.57;;;;;;;;;;5101591;28;20024;-76
2023/11/08 08:17:03;;;;;;;32.28;13.50;;;;;;;;;;5115953;28;20020;-75
2023/11/08 08:19:52;;;;;;;22.67;10.85;;;;;;;;;;5102244;28;20024;-76
2023/11/08 08:22:37;;;;;;;24.48;11.23;;;;;;;;;;5115112;28;20031;-76
2023/11/08 08:25:23;;;;;;;32.25;12.25;;;;;;;;;;5116411;28;20023;-75
2023/11/08 08:28:09;;;;;;;19.45;9.75;;;;;;;;;;5114792;28;20028;-76
2023/11/08 08:30:54;;;;;;;22.48;10.95;;;;;;;;;;5115454;28;20028;-74
2023/11/08 08:33:40;;;;;;;23.88;11.55;;;;;;;;;;5115059;28;20031;-74
2023/11/08 08:36:28;;;;;;;25.95;13.30;;;;;;;;;;5116603;28;20389;-74
2023/11/08 08:39:16;;;;;;;22.17;10.95;;;;;;;;;;5115341;28;20447;-74
2023/11/08 08:42:02;;;;;;;21.67;10.13;;;;;;;;;;5116244;28;20023;-76
2023/11/08 08:44:49;;;;;;;15.57;9.52;;;;;;;;;;5116065;28;20066;-73
2023/11/08 08:47:36;;;;;;;18.38;10.30;;;;;;;;;;5115311;28;20098;-73
2023/11/08 08:50:22;;;;;;;27.35;10.80;;;;;;;;;;5101415;28;20374;-74
2023/11/08 08:53:08;;;;;;;20.50;10.27;;;;;;;;;;5100306;28;20031;-74
2023/11/08 08:55:53;;;;;;;26.50;11.20;;;;;;;;;;5115436;28;20038;-73
2023/11/08 08:58:39;;;;;;;29.63;11.55;;;;;;;;;;5101459;28;20016;-75
2023/11/08 09:01:25;;;;;;;30.58;11.85;;;;;;;;;;5115885;28;20023;-74
2023/11/08 09:04:11;;;;;;;36.70;13.02;;;;;;;;;;5116447;28;20065;-72
2023/11/08 09:06:57;;;;;;;28.90;13.50;;;;;;;;;;5116869;28;20034;-73
2023/11/08 09:09:42;;;;;;;27.48;11.80;;;;;;;;;;5116505;28;20016;-73
2023/11/08 09:12:28;;;;;;;27.95;12.02;;;;;;;;;;5114921;28;20126;-71
2023/11/08 09:15:14;;;;;;;21.17;10.02;;;;;;;;;;5100533;28;20016;-74
2023/11/08 09:17:59;;;;;;;22.52;9.88;;;;;;;;;;5115043;28;20015;-72
2023/11/08 09:20:47;;;;;;;18.02;9.65;;;;;;;;;;5099454;28;20099;-72
2023/11/08 09:23:33;;;;;;;27.05;9.20;;;;;;;;;;5114755;28;20421;-72
2023/11/08 09:26:19;;;;;;;19.05;8.68;;;;;;;;;;5115112;28;20387;-72
2023/11/08 09:29:04;;;;;;;16.67;8.63;;;;;;;;;;5114204;28;20470;-73
2023/11/08 09:31:50;;;;;;;16.13;8.70;;;;;;;;;;5114313;28;20030;-74
2023/11/08 09:34:36;;;;;;;20.42;8.65;;;;;;;;;;5114736;28;20027;-73
2023/11/08 09:37:21;;;;;;;16.98;8.05;;;;;;;;;;5114315;28;20028;-73
2023/11/08 09:40:10;;;;;;;15.65;8.02;;;;;;;;;;5114717;28;20039;-72
2023/11/08 09:42:56;;;;;;;17.40;9.10;;;;;;;;;;5099374;28;20020;-72
2023/11/08 09:45:42;;;;;;;17.95;9.63;;;;;;;;;;5100058;28;20420;-73
2023/11/08 09:48:28;;;;;;;22.02;9.10;;;;;;;;;;5114486;28;20335;-73
2023/11/08 09:51:15;;;;;;;20.85;8.93;;;;;;;;;;5113700;28;20096;-74
2023/11/08 09:54:03;;;;;;;17.23;8.13;;;;;;;;;;5113630;28;20050;-72
2023/11/08 09:56:48;;;;;;;18.35;7.53;;;;;;;;;;5117420;28;20077;-74
2023/11/08 09:59:34;;;;;;;17.48;7.47;;;;;;;;;;5118380;28;20367;-72
2023/11/08 10:02:20;;;;;;;15.77;7.88;;;;;;;;;;5104139;28;20023;-73
2023/11/08 10:05:06;;;;;;;17.92;8.77;;;;;;;;;;5118475;28;20035;-72
2023/11/08 10:07:53;;;;;;;19.23;9.30;;;;;;;;;;5118265;28;20435;-73
2023/11/08 10:10:42;;;;;;;25.45;11.75;;;;;;;;;;5117871;28;20039;-72
2023/11/08 10:13:57;;;;;;;23.92;11.68;;;;;;;;;;5119455;28;20052;-71
2023/11/08 10:16:44;;;;;;;27.42;12.63;;;;;;;;;;5111887;28;20027;-72
2023/11/08 10:19:46;;;;;;;24.33;12.55;;;;;;;;;;5118607;28;20015;-72
2023/11/08 10:22:32;;;;;;;27.58;12.95;;;;;;;;;;5120033;28;20085;-73
2023/11/08 10:25:18;;;;;;;26.38;13.25;;;;;;;;;;5120393;28;20114;-74
2023/11/08 10:28:07;;;;;;;23.15;12.52;;;;;;;;;;5119635;28;20382;-77
2023/11/08 10:30:52;;;;;;;23.75;12.05;;;;;;;;;;5103668;28;20361;-77
2023/11/08 10:33:39;;;;;;;21.85;11.18;;;;;;;;;;5097384;28;20020;-73
2023/11/08 10:36:26;;;;;;;19.23;11.20;;;;;;;;;;5119493;28;20462;-72
2023/11/08 10:39:13;;;;;;;20.15;10.82;;;;;;;;;;5118735;28;20101;-72
2023/11/08 10:41:59;;;;;;;23.98;11.23;;;;;;;;;;5118221;28;20027;-72
2023/11/08 10:44:45;;;;;;;17.40;9.20;;;;;;;;;;5112255;28;20033;-73
2023/11/08 10:47:31;;;;;;;20.02;8.88;;;;;;;;;;5118917;28;20348;-73
2023/11/08 10:50:17;;;;;;;18.05;9.18;;;;;;;;;;5117499;28;20019;-72
2023/11/08 10:53:05;;;;;;;18.10;8.45;;;;;;;;;;5118758;28;20035;-73
2023/11/08 10:55:52;;;;;;;19.30;9.90;;;;;;;;;;5116733;28;20104;-72
2023/11/08 10:58:43;;;;;;;17.35;9.32;;;;;;;;;;5103375;28;20027;-72
2023/11/08 11:01:30;;;;;;;18.25;9.48;;;;;;;;;;5117196;28;20024;-72
2023/11/08 11:04:18;;;;;;;22.58;10.02;;;;;;;;;;5117090;28;20016;-71
2023/11/08 11:07:05;;;;;;;19.95;10.10;;;;;;;;;;5117760;28;20038;-72
2023/11/08 11:09:53;;;;;;;19.33;9.98;;;;;;;;;;5118702;27;20031;-72
2023/11/08 11:12:45;;;;;;;18.27;10.73;;;;;;;;;;5101510;28;20031;-72
2023/11/08 11:15:43;;;;;;;23.75;10.90;;;;;;;;;;5116891;28;20054;-72
2023/11/08 11:18:34;;;;;;;21.52;11.27;;;;;;;;;;5102676;28;20114;-71
2023/11/08 11:21:22;;;;;;;23.40;9.95;;;;;;;;;;5118674;27;20015;-71
2023/11/08 11:24:27;;;;;;;20.88;10.85;;;;;;;;;;5117172;28;20096;-71
2023/11/08 11:27:31;;;;;;;27.08;9.52;;;;;;;;;;5104050;28;20080;-71
2023/11/08 11:30:22;;;;;;;16.90;9.90;;;;;;;;;;5117357;28;20016;-71
2023/11/08 11:33:07;;;;;;;18.25;9.90;;;;;;;;;;5102178;28;20110;-72
2023/11/08 11:35:54;;;;;;;20.23;9.65;;;;;;;;;;5115680;28;20029;-71
2023/11/08 11:38:41;;;;;;;18.25;10.27;;;;;;;;;;5115817;28;20012;-72
2023/11/08 11:41:27;;;;;;;18.83;10.45;;;;;;;;;;5103334;28;20034;-73
2023/11/08 11:44:13;;;;;;;20.13;11.25;;;;;;;;;;5117200;28;20372;-73
2023/11/08 11:47:03;;;;;;;21.67;11.52;;;;;;;;;;5117670;28;20019;-72
2023/11/08 11:49:50;;;;;;;20.25;13.40;;;;;;;;;;5117646;28;20077;-71
2023/11/08 11:52:36;;;;;;;24.23;13.52;;;;;;;;;;5117096;28;20024;-71
2023/11/08 11:55:22;;;;;;;19.75;12.43;;;;;;;;;;5116416;28;20136;-72
2023/11/08 11:58:11;;;;;;;25.45;13.85;;;;;;;;;;5117589;28;20019;-73
2023/11/08 12:00:57;;;;;;;24.42;13.73;;;;;;;;;;5117397;28;20035;-73
2023/11/08 12:03:43;;;;;;;26.02;15.13;;;;;;;;;;5117008;28;20443;-75
2023/11/08 12:06:29;;;;;;;30.45;15.32;;;;;;;;;;5117104;28;20119;-73
2023/11/08 12:09:14;;;;;;;30.40;16.52;;;;;;;;;;5115173;28;20024;-72
2023/11/08 12:12:00;;;;;;;32.03;16.35;;;;;;;;;;5115806;28;20023;-72
2023/11/08 12:14:47;;;;;;;27.20;15.68;;;;;;;;;;5110669;28;20016;-73
2023/11/08 12:17:32;;;;;;;25.67;16.50;;;;;;;;;;5102663;28;20023;-73
2023/11/08 12:20:20;;;;;;;33.40;16.63;;;;;;;;;;5114914;28;20103;-72
2023/11/08 12:23:06;;;;;;;28.42;17.75;;;;;;;;;;5101285;28;20020;-73
2023/11/08 12:25:52;;;;;;;26.02;16.35;;;;;;;;;;5116660;28;20106;-72
2023/11/08 12:28:38;;;;;;;27.23;16.67;;;;;;;;;;5115891;28;20402;-72
2023/11/08 12:31:27;;;;;;;27.42;15.48;;;;;;;;;;5115680;28;20020;-72
2023/11/08 12:34:14;;;;;;;31.25;17.77;;;;;;;;;;5115919;28;20034;-72
2023/11/08 12:36:59;;;;;;;31.20;16.77;;;;;;;;;;5116782;28;20024;-73
2023/11/08 12:39:45;;;;;;;27.83;16.65;;;;;;;;;;5115704;28;20396;-72
2023/11/08 12:42:31;;;;;;;29.67;16.90;;;;;;;;;;5116206;28;20034;-72
2023/11/08 12:45:29;;;;;;;29.63;18.67;;;;;;;;;;5116170;28;20012;-72
2023/11/08 12:48:15;;;;;;;31.63;18.27;;;;;;;;;;5115895;28;20030;-73
2023/11/08 12:51:05;;;;;;;32.45;18.55;;;;;;;;;;5102228;28;20396;-72
2023/11/08 12:53:50;;;;;;;30.45;18.55;;;;;;;;;;5101526;28;20056;-73
2023/11/08 12:56:38;;;;;;;34.03;19.98;;;;;;;;;;5115819;28;20011;-72
2023/11/08 12:59:24;;;;;;;28.88;19.35;;;;;;;;;;5115647;28;20031;-71
2023/11/08 13:02:11;;;;;;;33.95;20.15;;;;;;;;;;5115016;28;20110;-73
2023/11/08 13:05:00;;;;;;;31.00;18.42;;;;;;;;;;5101103;28;20035;-72
2023/11/08 13:07:46;;;;;;;32.05;19.38;;;;;;;;;;5100086;28;20420;-74
2023/11/08 13:10:31;;;;;;;28.33;18.52;;;;;;;;;;5092101;28;20491;-72
2023/11/08 13:13:17;;;;;;;28.58;18.63;;;;;;;;;;5060985;28;20107;-73
2023/11/08 13:16:05;;;;;;;33.45;19.25;;;;;;;;;;5075450;28;20089;-72
2023/11/08 13:18:51;;;;;;;35.30;18.73;;;;;;;;;;5074441;28;20099;-72
2023/11/08 13:21:40;;;;;;;27.65;18.88;;;;;;;;;;5075025;28;20105;-71
2023/11/08 13:24:26;;;;;;;26.70;17.85;;;;;;;;;;5074657;28;20016;-72
2023/11/08 13:27:12;;;;;;;30.85;18.50;;;;;;;;;;5077273;28;20326;-75
2023/11/08 13:29:57;;;;;;;28.67;19.30;;;;;;;;;;5095229;28;20032;-75
2023/11/08 13:32:43;;;;;;;28.83;18.77;;;;;;;;;;5094514;28;20081;-75
2023/11/08 13:35:29;;;;;;;29.75;18.08;;;;;;;;;;5093965;28;20027;-75
2023/11/08 13:38:17;;;;;;;30.38;19.05;;;;;;;;;;5079979;28;20158;-74
2023/11/08 13:41:06;;;;;;;31.85;20.35;;;;;;;;;;5094233;28;20024;-74
2023/11/08 13:43:52;;;;;;;31.25;20.40;;;;;;;;;;5093342;28;20016;-75
2023/11/08 13:46:39;;;;;;;32.03;21.20;;;;;;;;;;5093644;28;20020;-74
2023/11/08 13:49:24;;;;;;;29.10;19.80;;;;;;;;;;5093782;28;20024;-69
2023/11/08 13:52:10;;;;;;;27.85;17.92;;;;;;;;;;5093086;28;20024;-70
2023/11/08 13:54:56;;;;;;;25.10;16.65;;;;;;;;;;5107723;28;20054;-71
2023/11/08 13:57:43;;;;;;;24.20;17.13;;;;;;;;;;5114814;28;20047;-70
2023/11/08 14:00:29;;;;;;;22.98;16.25;;;;;;;;;;5113677;28;20028;-71
2023/11/08 14:03:15;;;;;;;22.10;16.38;;;;;;;;;;5114769;28;20035;-70
2023/11/08 14:06:00;;;;;;;21.58;16.70;;;;;;;;;;5095109;28;20353;-72
2023/11/08 14:08:46;;;;;;;25.75;15.88;;;;;;;;;;5094740;28;20023;-71
2023/11/08 14:11:35;;;;;;;20.83;15.38;;;;;;;;;;5094284;28;20055;-72
2023/11/08 14:14:21;;;;;;;21.75;14.65;;;;;;;;;;5094350;28;20020;-73
2023/11/08 14:17:06;;;;;;;25.05;15.88;;;;;;;;;;5094342;28;20020;-75
2023/11/08 14:19:52;;;;;;;22.60;15.05;;;;;;;;;;5095712;28;20027;-75
2023/11/08 14:22:39;;;;;;;42.10;15.52;;;;;;;;;;5094838;28;20066;-75
2023/11/08 14:25:24;;;;;;;31.73;15.60;;;;;;;;;;5079772;28;20035;-75
2023/11/08 14:28:13;;;;;;;22.73;13.80;;;;;;;;;;5098603;28;20031;-76
2023/11/08 14:31:01;;;;;;;30.60;13.95;;;;;;;;;;5095724;28;20024;-75
2023/11/08 14:33:46;;;;;;;17.55;11.23;;;;;;;;;;5101874;28;20023;-75
2023/11/08 14:36:32;;;;;;;15.77;11.75;;;;;;;;;;5100365;28;20049;-75
2023/11/08 14:39:17;;;;;;;16.77;10.75;;;;;;;;;;5117337;28;20024;-76
2023/11/08 14:42:03;;;;;;;17.42;10.15;;;;;;;;;;5103586;28;20473;-75
2023/11/08 14:44:49;;;;;;;13.45;9.15;;;;;;;;;;5097961;28;20035;-73
2023/11/08 14:47:35;;;;;;;14.05;9.27;;;;;;;;;;5101177;28;20352;-72
2023/11/08 14:50:21;;;;;;;13.18;9.45;;;;;;;;;;5112507;28;20028;-74
2023/11/08 14:53:08;;;;;;;12.18;8.85;;;;;;;;;;5115508;28;20031;-75
2023/11/08 14:55:53;;;;;;;14.57;9.40;;;;;;;;;;5114748;28;20130;-71
2023/11/08 14:58:39;;;;;;;12.05;8.63;;;;;;;;;;5116176;28;20032;-72
2023/11/08 15:01:25;;;;;;;13.38;8.25;;;;;;;;;;5109889;28;20479;-70
2023/11/08 15:04:11;;;;;;;10.57;8.18;;;;;;;;;;5115856;28;20016;-70
2023/11/08 15:06:56;;;;;;;14.40;8.55;;;;;;;;;;5103951;28;20070;-72
2023/11/08 15:09:42;;;;;;;13.18;7.88;;;;;;;;;;5112747;28;20028;-71
2023/11/08 15:12:27;;;;;;;10.90;7.95;;;;;;;;;;5117088;28;20012;-73
2023/11/08 15:15:16;;;;;;;11.45;7.40;;;;;;;;;;5118238;28;20012;-72
2023/11/08 15:18:01;;;;;;;9.82;7.60;;;;;;;;;;5118497;28;20004;-72
2023/11/08 15:20:47;;;;;;;10.70;7.50;;;;;;;;;;5117121;28;20013;-73
2023/11/08 15:23:32;;;;;;;8.70;7.20;;;;;;;;;;5116533;28;20445;-75
2023/11/08 15:26:18;;;;;;;9.75;6.93;;;;;;;;;;5107147;28;20074;-73
2023/11/08 15:29:05;;;;;;;10.35;8.05;;;;;;;;;;5103606;28;20038;-74
2023/11/08 15:31:50;;;;;;;10.05;7.05;;;;;;;;;;5087027;28;20035;-74
2023/11/08 15:34:36;;;;;;;13.93;7.45;;;;;;;;;;5097311;28;20013;-75
2023/11/08 15:37:24;;;;;;;13.27;9.23;;;;;;;;;;5098284;28;20024;-73
2023/11/08 15:40:11;;;;;;;14.23;9.00;;;;;;;;;;5092643;28;20020;-73
2023/11/08 15:42:57;;;;;;;12.13;8.82;;;;;;;;;;5095641;28;20046;-74
2023/11/08 15:45:43;;;;;;;13.40;9.52;;;;;;;;;;5098422;28;20024;-75
2023/11/08 15:48:29;;;;;;;16.90;9.85;;;;;;;;;;5081362;28;20352;-71
2023/11/08 15:51:18;;;;;;;13.95;9.20;;;;;;;;;;5096468;28;20028;-72
2023/11/08 15:54:04;;;;;;;16.67;9.70;;;;;;;;;;5102712;28;20039;-74
2023/11/08 15:56:50;;;;;;;15.20;10.50;;;;;;;;;;5092896;28;20115;-74
2023/11/08 15:59:35;;;;;;;16.05;10.65;;;;;;;;;;5082555;28;20034;-73
2023/11/08 16:02:21;;;;;;;13.75;9.15;;;;;;;;;;5096594;28;20024;-71
2023/11/08 16:05:09;;;;;;;12.13;8.82;;;;;;;;;;5096799;28;20016;-71
2023/11/08 16:07:57;;;;;;;15.90;9.63;;;;;;;;;;5095845;28;20496;-73
2023/11/08 16:10:44;;;;;;;15.60;9.10;;;;;;;;;;5081449;28;20027;-71
2023/11/08 16:13:29;;;;;;;13.07;8.32;;;;;;;;;;5080521;28;20035;-71
2023/11/08 16:16:15;;;;;;;15.18;9.00;;;;;;;;;;5082506;28;20020;-72